Time;durP1;ratioP1;P1;durP2;ratioP2;P2;SDS_P1;SDS_P2;PMS_P1;PMS_P2;Temp;Humidity;BMP_temperature;BMP_pressure;BME280_temperature;BME280_humidity;BME280_pressure;Samples;Min_cycle;Max_cycle;Signal;HPM_P1;HPM_P2
2021/11/14 00:02:06;;;;;;;14.90;9.73;;;6.30;99.90;;;;;;5054500;28;20047;-78
2021/11/14 00:04:32;;;;;;;14.47;9.73;;;6.30;99.90;;;;;;5072708;28;20024;-78
2021/11/14 00:06:58;;;;;;;14.27;9.17;;;6.30;99.90;;;;;;5072335;28;20108;-78
2021/11/14 00:09:23;;;;;;;12.97;9.77;;;6.30;99.90;;;;;;5072224;28;20048;-78
2021/11/14 00:11:49;;;;;;;15.30;9.03;;;6.30;99.90;;;;;;5054237;28;20025;-78
2021/11/14 00:14:15;;;;;;;16.13;8.77;;;6.30;99.90;;;;;;5072179;28;20035;-78
2021/11/14 00:16:40;;;;;;;13.07;9.00;;;6.30;99.90;;;;;;5072384;28;20070;-78
2021/11/14 00:19:06;;;;;;;13.57;8.57;;;6.30;99.90;;;;;;5072267;28;20370;-78
2021/11/14 00:21:35;;;;;;;15.03;9.03;;;6.30;99.90;;;;;;5072058;28;20029;-78
2021/11/14 00:24:01;;;;;;;14.07;9.10;;;6.30;99.90;;;;;;5072224;28;20389;-78
2021/11/14 00:26:27;;;;;;;14.40;10.20;;;6.30;99.90;;;;;;5073781;28;20039;-78
2021/11/14 00:28:53;;;;;;;13.30;8.80;;;6.30;99.90;;;;;;5075818;28;20025;-78
2021/11/14 00:31:20;;;;;;;10.97;7.27;;;6.30;99.90;;;;;;5058158;28;20418;-79
2021/11/14 00:33:48;;;;;;;13.73;8.07;;;6.30;99.90;;;;;;5058080;28;20097;-79
2021/11/14 00:36:19;;;;;;;11.93;8.60;;;6.30;99.90;;;;;;5066359;28;20048;-79
2021/11/14 00:38:45;;;;;;;12.30;8.57;;;6.30;99.90;;;;;;5096539;28;20038;-79
2021/11/14 00:41:11;;;;;;;13.47;9.13;;;6.30;99.90;;;;;;5096486;28;20100;-79
2021/11/14 00:43:37;;;;;;;11.60;8.70;;;6.30;99.90;;;;;;5096217;28;20498;-79
2021/11/14 00:46:05;;;;;;;13.57;9.13;;;6.30;99.90;;;;;;5077792;28;20419;-79
2021/11/14 00:48:33;;;;;;;13.30;9.10;;;6.30;99.90;;;;;;5077749;28;20032;-78
2021/11/14 00:51:03;;;;;;;15.20;10.00;;;6.30;99.90;;;;;;5077576;28;20134;-78
2021/11/14 00:53:29;;;;;;;15.00;9.80;;;6.20;99.90;;;;;;5095835;28;20100;-78
2021/11/14 00:55:55;;;;;;;14.83;10.23;;;6.20;99.90;;;;;;5095789;28;20417;-78
2021/11/14 00:58:25;;;;;;;13.87;10.60;;;6.20;99.90;;;;;;5096038;28;20032;-78
2021/11/14 01:00:52;;;;;;;15.30;10.80;;;6.20;99.90;;;;;;5095857;28;20453;-78
2021/11/14 01:03:17;;;;;;;13.40;10.03;;;6.20;99.90;;;;;;5095654;28;20032;-78
2021/11/14 01:05:43;;;;;;;12.70;9.60;;;6.20;99.90;;;;;;5095720;28;20034;-78
2021/11/14 01:08:10;;;;;;;13.47;9.53;;;6.20;99.90;;;;;;5095642;28;20028;-78
2021/11/14 01:10:45;;;;;;;15.43;9.73;;;6.20;99.90;;;;;;5077885;28;20373;-78
2021/11/14 01:13:10;;;;;;;12.52;9.00;;;6.20;99.90;;;;;;5095592;28;20072;-78
2021/11/14 01:15:38;;;;;;;14.00;10.10;;;6.30;99.90;;;;;;5095280;28;20150;-78
2021/11/14 01:18:04;;;;;;;13.57;9.10;;;6.20;99.90;;;;;;5077266;28;20453;-77
2021/11/14 01:20:35;;;;;;;12.40;9.33;;;6.30;99.90;;;;;;5095432;28;20024;-77
2021/11/14 01:23:02;;;;;;;10.73;8.30;;;6.30;99.90;;;;;;5095227;28;20426;-78
2021/11/14 01:25:28;;;;;;;14.00;8.13;;;6.30;99.90;;;;;;5095248;28;20456;-78
2021/11/14 01:27:53;;;;;;;11.43;7.80;;;6.30;99.90;;;;;;5076747;28;20028;-78
2021/11/14 01:30:24;;;;;;;13.40;9.23;;;6.30;99.90;;;;;;5094984;28;20028;-78
2021/11/14 01:32:52;;;;;;;12.57;8.13;;;6.30;99.90;;;;;;5077183;28;20070;-78
2021/11/14 01:35:18;;;;;;;12.23;7.90;;;6.30;99.90;;;;;;5077051;28;20465;-78
2021/11/14 01:37:46;;;;;;;11.83;8.27;;;6.40;99.90;;;;;;5093859;28;20021;-78
2021/11/14 01:40:15;;;;;;;10.10;8.33;;;6.40;99.90;;;;;;5094860;28;20461;-77
2021/11/14 01:42:41;;;;;;;11.17;7.90;;;6.40;99.90;;;;;;5095119;28;20051;-77
2021/11/14 01:45:08;;;;;;;11.07;8.03;;;6.40;99.90;;;;;;5094963;28;20138;-77
2021/11/14 01:47:34;;;;;;;10.10;7.20;;;6.40;99.90;;;;;;5095181;28;20020;-78
2021/11/14 01:50:00;;;;;;;10.40;8.30;;;6.40;99.90;;;;;;5094776;28;20020;-78
2021/11/14 01:52:28;;;;;;;11.83;8.27;;;6.40;99.90;;;;;;5094975;28;20525;-77
2021/11/14 01:54:55;;;;;;;10.47;7.53;;;6.40;99.90;;;;;;5094934;28;20024;-78
2021/11/14 01:57:21;;;;;;;12.17;8.47;;;6.40;99.90;;;;;;5094839;28;20036;-78
2021/11/14 01:59:47;;;;;;;13.90;8.87;;;6.40;99.90;;;;;;5076439;28;20097;-78
2021/11/14 02:02:13;;;;;;;13.63;9.17;;;6.30;99.90;;;;;;5094483;28;20020;-77
2021/11/14 02:04:41;;;;;;;12.07;8.47;;;6.30;99.90;;;;;;5094389;28;20042;-78
2021/11/14 02:07:12;;;;;;;15.23;9.83;;;6.30;99.90;;;;;;5094499;28;20020;-78
2021/11/14 02:09:38;;;;;;;15.97;9.33;;;6.30;99.90;;;;;;5076258;28;20465;-77
2021/11/14 02:12:05;;;;;;;16.13;9.97;;;6.30;99.90;;;;;;5094277;28;20054;-78
2021/11/14 02:14:31;;;;;;;14.30;9.07;;;6.40;99.90;;;;;;5094237;28;20430;-78
2021/11/14 02:16:57;;;;;;;12.57;8.87;;;6.30;99.90;;;;;;5094171;28;20031;-78
2021/11/14 02:19:23;;;;;;;13.27;8.17;;;6.40;99.90;;;;;;5094358;28;20052;-78
2021/11/14 02:21:50;;;;;;;11.80;9.03;;;6.40;99.90;;;;;;5094204;28;20016;-78
2021/11/14 02:24:15;;;;;;;12.33;9.07;;;6.40;99.90;;;;;;5094046;28;20048;-78
2021/11/14 02:26:41;;;;;;;14.93;9.57;;;6.40;99.90;;;;;;5094283;28;20024;-78
2021/11/14 02:29:07;;;;;;;13.27;9.13;;;6.40;99.90;;;;;;5094155;28;20062;-78
2021/11/14 02:31:32;;;;;;;13.70;8.63;;;6.40;99.90;;;;;;5093969;28;20023;-78
2021/11/14 02:33:58;;;;;;;14.37;9.87;;;6.40;99.90;;;;;;5093794;28;20028;-78
2021/11/14 02:36:24;;;;;;;14.80;9.83;;;6.40;99.90;;;;;;5094466;28;20031;-78
2021/11/14 02:38:50;;;;;;;16.87;10.07;;;6.40;99.90;;;;;;5075520;28;20084;-78
2021/11/14 02:41:16;;;;;;;13.90;9.70;;;6.40;99.90;;;;;;5093916;28;20051;-78
2021/11/14 02:43:44;;;;;;;14.10;10.20;;;6.40;99.90;;;;;;5075836;28;20102;-78
2021/11/14 02:46:10;;;;;;;14.53;10.03;;;6.40;99.90;;;;;;5093953;28;20028;-78
2021/11/14 02:48:36;;;;;;;16.50;11.13;;;6.40;99.90;;;;;;5093246;28;20033;-78
2021/11/14 02:51:06;;;;;;;14.70;11.07;;;6.40;99.90;;;;;;5093533;28;20545;-78
2021/11/14 02:53:32;;;;;;;13.90;11.03;;;6.30;99.90;;;;;;5093965;28;20138;-78
2021/11/14 02:55:58;;;;;;;15.00;11.13;;;6.30;99.90;;;;;;5093453;28;20062;-78
2021/11/14 02:58:24;;;;;;;13.63;10.23;;;6.30;99.90;;;;;;5093426;28;20022;-78
2021/11/14 03:01:04;;;;;;;15.80;11.47;;;6.40;99.90;;;;;;5094085;28;20024;-78
2021/11/14 03:03:31;;;;;;;14.07;9.93;;;6.40;99.90;;;;;;5093610;28;20073;-78
2021/11/14 03:05:57;;;;;;;14.83;11.17;;;6.40;99.90;;;;;;5075110;28;20024;-78
2021/11/14 03:08:23;;;;;;;13.87;10.20;;;6.40;99.90;;;;;;5093487;28;20119;-78
2021/11/14 03:10:48;;;;;;;11.50;9.50;;;6.40;99.90;;;;;;5093690;28;20115;-78
2021/11/14 03:13:17;;;;;;;18.43;10.60;;;6.40;99.90;;;;;;5074973;28;20028;-78
2021/11/14 03:15:50;;;;;;;15.03;10.80;;;6.40;99.90;;;;;;5093669;28;20024;-78
2021/11/14 03:18:16;;;;;;;16.13;10.90;;;6.30;99.90;;;;;;5093067;28;20023;-78
2021/11/14 03:20:48;;;;;;;14.10;10.20;;;6.40;99.90;;;;;;5093667;28;20039;-78
2021/11/14 03:23:14;;;;;;;14.03;9.77;;;6.40;99.90;;;;;;5093237;28;20104;-78
2021/11/14 03:25:41;;;;;;;15.07;11.00;;;6.40;99.90;;;;;;5074760;28;20400;-78
2021/11/14 03:28:07;;;;;;;15.80;10.83;;;6.40;99.90;;;;;;5093359;28;20526;-78
2021/11/14 03:30:34;;;;;;;15.00;9.73;;;6.40;99.90;;;;;;5093155;28;20035;-78
2021/11/14 03:33:01;;;;;;;13.27;9.77;;;6.40;99.90;;;;;;5093130;28;20071;-78
2021/11/14 03:35:36;;;;;;;13.53;9.37;;;6.40;99.90;;;;;;5092916;28;20016;-78
2021/11/14 03:38:02;;;;;;;12.70;10.27;;;6.40;99.90;;;;;;5075148;28;20392;-78
2021/11/14 03:40:28;;;;;;;13.17;10.40;;;6.40;99.90;;;;;;5092929;28;20060;-78
2021/11/14 03:42:53;;;;;;;15.37;11.10;;;6.40;99.90;;;;;;5093181;28;20027;-78
2021/11/14 03:45:19;;;;;;;15.63;11.07;;;6.40;99.90;;;;;;5074702;28;20016;-78
2021/11/14 03:47:44;;;;;;;16.23;12.33;;;6.40;99.90;;;;;;5092764;28;20027;-78
2021/11/14 03:50:10;;;;;;;16.17;11.17;;;6.40;99.90;;;;;;5092887;28;20073;-78
2021/11/14 03:52:39;;;;;;;18.90;14.30;;;6.40;99.90;;;;;;5092591;28;20104;-78
2021/11/14 03:55:06;;;;;;;23.00;16.50;;;6.40;99.90;;;;;;5092699;28;20035;-78
2021/11/14 03:57:31;;;;;;;23.87;16.80;;;6.40;99.90;;;;;;5092891;28;20038;-78
2021/11/14 03:59:57;;;;;;;19.20;14.33;;;6.40;99.90;;;;;;5092645;28;20097;-78
2021/11/14 04:02:23;;;;;;;18.97;14.20;;;6.50;99.90;;;;;;5095577;28;20059;-78
2021/11/14 04:04:48;;;;;;;18.30;13.63;;;6.50;99.90;;;;;;5096795;28;20042;-78
2021/11/14 04:07:14;;;;;;;23.63;14.90;;;6.50;99.90;;;;;;5096799;28;20020;-78
2021/11/14 04:09:39;;;;;;;21.23;15.23;;;6.50;99.90;;;;;;5096671;28;20053;-78
2021/11/14 04:12:05;;;;;;;23.00;16.23;;;6.50;99.90;;;;;;5096766;28;20357;-78
2021/11/14 04:14:31;;;;;;;22.80;16.33;;;6.50;99.90;;;;;;5096731;28;20120;-78
2021/11/14 04:16:57;;;;;;;19.37;15.43;;;6.50;99.90;;;;;;5097177;28;20024;-78
2021/11/14 04:19:22;;;;;;;21.43;16.03;;;6.50;99.90;;;;;;5096469;28;20383;-78
2021/11/14 04:21:48;;;;;;;20.10;14.87;;;6.50;99.90;;;;;;5078540;28;20020;-78
2021/11/14 04:24:13;;;;;;;19.37;14.90;;;6.50;99.90;;;;;;5096942;28;20145;-78
2021/11/14 04:26:39;;;;;;;19.03;13.60;;;6.50;99.90;;;;;;5078812;28;20028;-78
2021/11/14 04:29:05;;;;;;;18.67;13.73;;;6.40;99.90;;;;;;5096654;28;20031;-78
2021/11/14 04:31:30;;;;;;;21.67;15.27;;;6.40;99.90;;;;;;5078272;28;20056;-78
2021/11/14 04:33:56;;;;;;;20.40;15.37;;;6.40;99.90;;;;;;5096204;28;20035;-77
2021/11/14 04:36:21;;;;;;;20.90;14.60;;;6.40;99.90;;;;;;5095900;28;20075;-77
2021/11/14 04:38:47;;;;;;;22.13;15.97;;;6.40;99.90;;;;;;5077946;28;20035;-77
2021/11/14 04:41:13;;;;;;;22.97;16.13;;;6.40;99.90;;;;;;5096147;28;20028;-78
2021/11/14 04:43:38;;;;;;;20.87;16.03;;;6.40;99.90;;;;;;5078185;28;20028;-78
2021/11/14 04:46:04;;;;;;;22.77;16.13;;;6.40;99.90;;;;;;5096029;28;20027;-77
2021/11/14 04:48:30;;;;;;;24.73;16.80;;;6.30;99.90;;;;;;5096169;28;20090;-77
2021/11/14 04:50:55;;;;;;;24.57;17.13;;;6.40;99.90;;;;;;5095979;28;20032;-78
2021/11/14 04:53:21;;;;;;;24.60;16.50;;;6.40;99.90;;;;;;5077974;28;20047;-77
2021/11/14 04:55:47;;;;;;;24.33;16.63;;;6.30;99.90;;;;;;5096570;28;20361;-77
2021/11/14 04:58:13;;;;;;;20.60;14.13;;;6.30;99.90;;;;;;5095828;28;20047;-77
2021/11/14 05:00:45;;;;;;;21.53;15.87;;;6.30;99.90;;;;;;5077651;28;20371;-77
2021/11/14 05:03:11;;;;;;;23.87;14.80;;;6.30;99.90;;;;;;5095880;28;20070;-77
2021/11/14 05:05:37;;;;;;;23.33;16.33;;;6.30;99.90;;;;;;5095778;28;20028;-77
2021/11/14 05:08:04;;;;;;;16.63;13.10;;;6.30;99.90;;;;;;5095534;28;20030;-77
2021/11/14 05:10:30;;;;;;;20.10;13.33;;;6.30;99.90;;;;;;5095868;28;20024;-77
2021/11/14 05:12:56;;;;;;;19.40;13.97;;;6.30;99.90;;;;;;5095726;28;20020;-77
2021/11/14 05:15:21;;;;;;;24.07;13.63;;;6.40;99.90;;;;;;5095867;28;20028;-77
2021/11/14 05:17:47;;;;;;;24.47;14.47;;;6.40;99.90;;;;;;5095951;28;20057;-77
2021/11/14 05:20:12;;;;;;;40.70;19.13;;;6.40;99.90;;;;;;5095297;28;20020;-77
2021/11/14 05:22:38;;;;;;;29.87;17.60;;;6.30;99.90;;;;;;5095387;28;20055;-77
2021/11/14 05:25:06;;;;;;;31.70;15.07;;;6.40;99.90;;;;;;5077173;28;20093;-77
2021/11/14 05:27:32;;;;;;;25.83;15.23;;;6.40;99.90;;;;;;5075063;28;20612;-77
2021/11/14 05:29:57;;;;;;;54.10;28.43;;;6.40;99.90;;;;;;5075145;28;20070;-78
2021/11/14 05:32:23;;;;;;;42.23;26.33;;;6.40;99.90;;;;;;5075204;28;20028;-77
2021/11/14 05:34:49;;;;;;;59.93;33.27;;;6.40;99.90;;;;;;5074666;28;20025;-78
2021/11/14 05:37:15;;;;;;;27.83;15.27;;;6.40;99.90;;;;;;5074734;28;20035;-77
2021/11/14 05:39:41;;;;;;;21.30;13.83;;;6.50;99.90;;;;;;5074806;28;20020;-77
2021/11/14 05:42:06;;;;;;;35.20;16.60;;;6.50;99.90;;;;;;5074648;28;20099;-77
2021/11/14 05:44:32;;;;;;;39.83;16.17;;;6.40;99.90;;;;;;5075221;28;20017;-77
2021/11/14 05:46:58;;;;;;;41.20;17.07;;;6.40;99.90;;;;;;5074922;28;20381;-77
2021/11/14 05:49:24;;;;;;;21.63;13.83;;;6.50;99.90;;;;;;5074401;28;20021;-77
2021/11/14 05:51:49;;;;;;;25.87;14.60;;;6.50;99.90;;;;;;5074430;28;20024;-77
2021/11/14 05:54:15;;;;;;;24.17;14.40;;;6.50;99.90;;;;;;5074848;28;20338;-77
2021/11/14 05:56:41;;;;;;;50.63;16.80;;;6.50;99.90;;;;;;5056332;28;20025;-77
2021/11/14 05:59:23;;;;;;;44.10;16.40;;;6.50;99.90;;;;;;5074673;28;20020;-77
2021/11/14 06:01:58;;;;;;;36.90;14.93;;;6.50;99.90;;;;;;5074741;28;20027;-77
2021/11/14 06:04:29;;;;;;;;;;;6.50;99.90;;;;;;5074765;28;20040;-77
2021/11/14 06:06:55;;;;;;;31.00;15.20;;;6.50;99.90;;;;;;5074431;28;19911;-77
2021/11/14 06:09:20;;;;;;;51.97;18.50;;;6.50;99.90;;;;;;5074754;28;20020;-77
2021/11/14 06:11:46;;;;;;;82.17;23.57;;;6.50;99.90;;;;;;5074304;28;20020;-77
2021/11/14 06:14:12;;;;;;;37.93;16.20;;;6.50;99.90;;;;;;5074320;28;20028;-77
2021/11/14 06:16:38;;;;;;;76.53;17.00;;;6.50;99.90;;;;;;5074228;28;20048;-77
2021/11/14 06:19:03;;;;;;;31.83;15.27;;;6.70;99.90;;;;;;5074366;28;20028;-77
2021/11/14 06:21:29;;;;;;;35.97;18.27;;;6.80;99.90;;;;;;5074320;28;20079;-80
2021/11/14 06:23:54;;;;;;;22.03;16.73;;;6.80;99.90;;;;;;5059256;28;20076;-77
2021/11/14 06:26:22;;;;;;;21.27;15.20;;;6.80;99.90;;;;;;5082603;28;20029;-77
2021/11/14 06:28:48;;;;;;;29.87;15.80;;;6.80;99.90;;;;;;5081406;28;20440;-78
2021/11/14 06:31:13;;;;;;;29.20;16.17;;;6.80;99.90;;;;;;5093894;28;20059;-78
2021/11/14 06:33:39;;;;;;;27.67;18.23;;;6.70;99.90;;;;;;5094102;28;20455;-78
2021/11/14 06:36:05;;;;;;;26.43;17.97;;;6.70;99.90;;;;;;5093653;28;20031;-77
2021/11/14 06:38:30;;;;;;;28.20;17.67;;;6.80;99.90;;;;;;5093515;28;20472;-78
2021/11/14 06:40:56;;;;;;;27.67;20.87;;;6.80;99.90;;;;;;5059146;28;20075;-78
2021/11/14 06:43:22;;;;;;;23.80;16.83;;;6.70;99.90;;;;;;5071865;28;20103;-78
2021/11/14 06:45:47;;;;;;;24.17;16.37;;;6.70;99.90;;;;;;5071454;28;20110;-78
2021/11/14 06:48:13;;;;;;;23.20;17.37;;;6.70;99.90;;;;;;5067370;28;20382;-78
2021/11/14 06:50:38;;;;;;;26.63;18.27;;;6.70;99.90;;;;;;5070358;28;20041;-78
2021/11/14 06:53:04;;;;;;;24.17;17.07;;;6.80;99.90;;;;;;5066643;28;20025;-82
2021/11/14 06:55:30;;;;;;;26.37;19.10;;;6.70;99.90;;;;;;5070097;28;20111;-78
2021/11/14 06:57:55;;;;;;;26.90;18.90;;;6.70;99.90;;;;;;5071003;28;20031;-78
2021/11/14 07:00:23;;;;;;;25.03;18.77;;;6.60;99.90;;;;;;5070374;28;20086;-78
2021/11/14 07:02:49;;;;;;;25.50;19.07;;;6.60;99.90;;;;;;5068113;28;20105;-78
2021/11/14 07:05:15;;;;;;;26.53;19.53;;;6.70;99.90;;;;;;5068347;28;20102;-78
2021/11/14 07:07:41;;;;;;;27.43;18.83;;;6.70;99.90;;;;;;5072661;28;20099;-78
2021/11/14 07:10:09;;;;;;;26.77;19.20;;;6.60;99.90;;;;;;5067634;28;20036;-78
2021/11/14 07:12:35;;;;;;;24.17;17.77;;;6.60;99.90;;;;;;5058915;28;20028;-79
2021/11/14 07:15:01;;;;;;;23.03;17.60;;;6.70;99.90;;;;;;5076340;22;20028;-76
2021/11/14 07:17:26;;;;;;;26.63;18.80;;;6.70;99.90;;;;;;5089958;22;20048;-79
2021/11/14 07:19:53;;;;;;;25.20;18.40;;;6.70;99.90;;;;;;5073369;28;20025;-79
2021/11/14 07:22:19;;;;;;;25.90;18.80;;;6.60;99.90;;;;;;5055342;28;20507;-79
2021/11/14 07:24:46;;;;;;;27.00;18.07;;;6.70;99.90;;;;;;5073739;28;20029;-79
2021/11/14 07:27:12;;;;;;;26.73;18.40;;;6.70;99.90;;;;;;5073069;28;20025;-77
2021/11/14 07:29:37;;;;;;;24.07;16.37;;;6.70;99.90;;;;;;5058277;28;20472;-76
2021/11/14 07:32:03;;;;;;;27.77;18.23;;;6.80;99.90;;;;;;5079969;28;20069;-75
2021/11/14 07:34:29;;;;;;;29.13;18.83;;;6.70;99.90;;;;;;5093287;28;20021;-75
2021/11/14 07:36:55;;;;;;;27.40;19.23;;;6.70;99.90;;;;;;5092587;28;20433;-75
2021/11/14 07:39:20;;;;;;;23.77;18.43;;;6.70;99.90;;;;;;5093009;28;20418;-74
2021/11/14 07:41:46;;;;;;;24.40;17.70;;;6.80;99.90;;;;;;5078723;28;20028;-77
2021/11/14 07:44:11;;;;;;;32.60;23.03;;;6.80;99.90;;;;;;5082447;28;20384;-78
2021/11/14 07:46:37;;;;;;;26.30;18.63;;;6.80;99.90;;;;;;5080183;28;20020;-77
2021/11/14 07:49:03;;;;;;;25.03;18.23;;;6.90;99.90;;;;;;5072585;28;20036;-77
2021/11/14 07:51:30;;;;;;;27.10;18.40;;;6.90;99.90;;;;;;5071204;28;20507;-78
2021/11/14 07:53:58;;;;;;;30.43;19.33;;;6.90;99.90;;;;;;5075625;28;20033;-79
2021/11/14 07:56:24;;;;;;;25.27;17.83;;;6.80;99.90;;;;;;5072469;28;20044;-76
2021/11/14 07:58:49;;;;;;;26.03;18.97;;;6.90;99.90;;;;;;5057586;23;20068;-77
2021/11/14 08:03:44;;;;;;;24.43;17.57;;;6.90;99.90;;;;;;5061413;28;20047;-77
2021/11/14 08:06:10;;;;;;;25.93;18.47;;;7.00;99.90;;;;;;5060657;28;20021;-78
2021/11/14 08:08:36;;;;;;;28.97;20.80;;;6.90;99.90;;;;;;5065343;28;20024;-75
2021/11/14 08:11:02;;;;;;;27.50;19.53;;;6.80;99.90;;;;;;5058718;28;20087;-75
2021/11/14 08:16:09;;;;;;;32.97;21.10;;;6.90;99.90;;;;;;5166464;23;20401;-77
2021/11/14 08:18:34;;;;;;;32.53;20.43;;;7.00;99.90;;;;;;5056340;28;20040;-76
2021/11/14 08:21:00;;;;;;;30.63;20.47;;;7.10;99.90;;;;;;5055561;28;20112;-76
2021/11/14 08:23:26;;;;;;;33.93;22.03;;;7.10;99.90;;;;;;5056001;28;20059;-76
2021/11/14 08:25:52;;;;;;;33.33;24.23;;;7.10;99.90;;;;;;5041634;28;20104;-76
2021/11/14 08:28:17;;;;;;;45.23;27.47;;;7.10;99.90;;;;;;5042967;28;20029;-76
2021/11/14 08:30:43;;;;;;;37.17;26.00;;;7.00;99.90;;;;;;5041267;28;20025;-76
2021/11/14 08:33:10;;;;;;;42.60;29.37;;;7.00;99.90;;;;;;5036398;28;20052;-76
2021/11/14 08:35:36;;;;;;;45.60;29.97;;;7.00;99.90;;;;;;5045082;28;20033;-76
2021/11/14 08:38:05;;;;;;;45.23;29.07;;;7.00;99.90;;;;;;5044959;28;20470;-77
2021/11/14 08:40:33;;;;;;;37.53;25.80;;;7.10;99.90;;;;;;5041000;28;20501;-77
2021/11/14 08:43:03;;;;;;;42.87;28.33;;;7.10;99.90;;;;;;5036969;28;20314;-77
2021/11/14 08:45:30;;;;;;;38.93;25.93;;;7.10;99.90;;;;;;5036244;28;20132;-77
2021/11/14 08:47:56;;;;;;;41.47;26.50;;;7.10;99.90;;;;;;5041643;28;20036;-77
2021/11/14 08:50:23;;;;;;;44.67;29.47;;;7.20;99.90;;;;;;5041070;28;20072;-77
2021/11/14 08:52:49;;;;;;;48.90;31.13;;;7.10;99.90;;;;;;5042626;28;20025;-77
2021/11/14 08:55:19;;;;;;;48.40;31.80;;;7.20;99.90;;;;;;5044525;28;20083;-77
2021/11/14 08:57:47;;;;;;;65.47;42.87;;;7.10;99.90;;;;;;5045016;28;20103;-76
2021/11/14 09:00:15;;;;;;;44.13;29.63;;;7.10;99.90;;;;;;5040251;28;20377;-76
2021/11/14 09:02:42;;;;;;;44.33;29.73;;;7.20;99.90;;;;;;5043353;28;20112;-76
2021/11/14 09:05:08;;;;;;;45.63;30.13;;;7.20;99.90;;;;;;5044271;28;20032;-76
2021/11/14 09:07:34;;;;;;;39.83;26.63;;;7.20;99.90;;;;;;5045035;28;20033;-76
2021/11/14 09:09:59;;;;;;;49.97;32.63;;;7.30;99.90;;;;;;5043564;28;20112;-76
2021/11/14 09:12:25;;;;;;;38.60;26.27;;;7.20;99.90;;;;;;5040295;28;20038;-76
2021/11/14 09:14:51;;;;;;;38.93;26.93;;;7.40;99.90;;;;;;5038118;28;20049;-76
2021/11/14 09:17:17;;;;;;;40.17;27.43;;;7.30;99.90;;;;;;5039926;28;20021;-76
2021/11/14 09:19:43;;;;;;;38.63;27.03;;;7.30;99.90;;;;;;5035884;28;20075;-76
2021/11/14 09:22:09;;;;;;;36.33;25.63;;;7.30;99.90;;;;;;5037755;28;20022;-76
2021/11/14 09:24:35;;;;;;;37.17;24.83;;;7.40;99.90;;;;;;5038070;28;20407;-76
2021/11/14 09:27:01;;;;;;;33.03;23.70;;;7.40;99.90;;;;;;5037380;28;20037;-75
2021/11/14 09:29:26;;;;;;;42.67;28.33;;;7.40;99.90;;;;;;5042093;28;20056;-76
2021/11/14 09:31:52;;;;;;;33.90;24.37;;;7.40;99.90;;;;;;5044591;28;20041;-76
2021/11/14 09:34:17;;;;;;;30.83;22.17;;;7.40;99.90;;;;;;5054403;28;20047;-76
2021/11/14 09:36:44;;;;;;;34.87;22.70;;;7.60;99.90;;;;;;5055641;28;20044;-77
2021/11/14 09:39:12;;;;;;;38.97;24.87;;;7.70;99.90;;;;;;5058406;28;20025;-77
2021/11/14 09:41:44;;;;;;;32.27;22.57;;;7.70;99.90;;;;;;5058818;28;20041;-78
2021/11/14 09:44:11;;;;;;;36.10;24.93;;;7.70;99.90;;;;;;5059880;28;20025;-77
2021/11/14 09:46:40;;;;;;;37.00;25.13;;;7.60;99.90;;;;;;5058474;28;20060;-77
2021/11/14 09:49:07;;;;;;;34.10;23.30;;;7.60;99.90;;;;;;5058780;28;20039;-77
2021/11/14 09:51:33;;;;;;;36.40;25.40;;;7.60;99.90;;;;;;5058641;28;20108;-77
2021/11/14 09:53:59;;;;;;;32.77;22.13;;;7.60;99.90;;;;;;5056477;28;20110;-77
2021/11/14 09:56:24;;;;;;;31.43;23.03;;;7.60;99.90;;;;;;5056155;28;20085;-78
2021/11/14 09:58:50;;;;;;;33.80;20.70;;;7.60;99.90;;;;;;5057171;28;20031;-78
2021/11/14 10:01:16;;;;;;;30.73;20.97;;;7.60;99.90;;;;;;5058633;28;20028;-78
2021/11/14 10:03:41;;;;;;;31.40;21.20;;;7.70;99.90;;;;;;5059049;28;20052;-78
2021/11/14 10:06:07;;;;;;;29.40;18.40;;;7.70;99.90;;;;;;5060553;28;20094;-78
2021/11/14 10:08:40;;;;;;;34.23;19.10;;;7.70;99.90;;;;;;5058412;28;20025;-78
2021/11/14 10:11:06;;;;;;;28.43;19.17;;;7.70;99.90;;;;;;5060737;28;20067;-78
2021/11/14 10:13:35;;;;;;;30.63;19.53;;;7.70;99.90;;;;;;5059536;28;20021;-78
2021/11/14 10:16:08;;;;;;;26.43;17.83;;;7.70;99.90;;;;;;5060014;28;20052;-78
2021/11/14 10:18:35;;;;;;;27.10;19.33;;;7.90;99.90;;;;;;5060804;28;20113;-78
2021/11/14 10:21:02;;;;;;;49.30;30.80;;;8.00;99.90;;;;;;5060440;28;20059;-78
2021/11/14 10:23:31;;;;;;;29.30;19.03;;;7.90;99.90;;;;;;5060352;28;20083;-78
2021/11/14 10:26:02;;;;;;;24.10;18.23;;;8.10;99.90;;;;;;5059756;28;20021;-78
2021/11/14 10:28:28;;;;;;;25.27;17.70;;;8.00;99.90;;;;;;5057464;28;20029;-78
2021/11/14 10:30:55;;;;;;;29.00;19.23;;;8.10;99.90;;;;;;5056648;28;20021;-78
2021/11/14 10:33:21;;;;;;;28.80;18.53;;;8.10;99.90;;;;;;5058473;28;20077;-78
2021/11/14 10:35:50;;;;;;;27.27;18.13;;;8.00;99.90;;;;;;5057216;28;20365;-78
2021/11/14 10:38:19;;;;;;;30.03;19.33;;;8.00;99.90;;;;;;5055633;28;20028;-71
2021/11/14 10:40:48;;;;;;;28.57;17.80;;;7.90;99.90;;;;;;5055836;28;20083;-78
2021/11/14 10:43:18;;;;;;;29.67;17.67;;;7.90;99.90;;;;;;5059582;28;20031;-78
2021/11/14 10:45:44;;;;;;;29.00;17.47;;;7.90;99.90;;;;;;5062532;28;20051;-77
2021/11/14 10:48:14;;;;;;;24.23;17.13;;;7.90;99.90;;;;;;5057282;28;20076;-78
2021/11/14 10:50:44;;;;;;;27.47;17.43;;;7.90;99.90;;;;;;5058022;28;20369;-78
2021/11/14 10:53:15;;;;;;;24.87;17.00;;;7.90;99.90;;;;;;5054260;28;20025;-78
2021/11/14 10:55:43;;;;;;;23.93;15.97;;;7.90;99.90;;;;;;5049635;28;20016;-78
2021/11/14 10:58:10;;;;;;;23.50;14.83;;;7.80;99.90;;;;;;5050775;28;20027;-78
2021/11/14 11:00:38;;;;;;;24.57;15.33;;;7.80;99.90;;;;;;5049670;28;20032;-73
2021/11/14 11:03:05;;;;;;;23.07;15.13;;;7.90;99.90;;;;;;5050290;28;20021;-78
2021/11/14 11:05:32;;;;;;;21.53;13.43;;;7.80;99.90;;;;;;5049384;28;20114;-79
2021/11/14 11:08:06;;;;;;;22.13;14.43;;;7.70;99.90;;;;;;5050551;28;20059;-79
2021/11/14 11:10:34;;;;;;;23.98;15.43;;;7.80;99.90;;;;;;5051292;28;20028;-79
2021/11/14 11:13:02;;;;;;;22.47;14.57;;;7.70;99.90;;;;;;5049724;28;20029;-78
2021/11/14 11:15:37;;;;;;;34.10;20.77;;;7.80;99.90;;;;;;5051430;28;20049;-78
2021/11/14 11:18:05;;;;;;;23.73;15.45;;;7.80;99.90;;;;;;5053004;28;20013;-75
2021/11/14 11:20:30;;;;;;;22.00;14.87;;;7.70;99.90;;;;;;5052854;28;20021;-75
2021/11/14 11:23:03;;;;;;;21.33;14.10;;;7.80;99.90;;;;;;5052865;28;20021;-75
2021/11/14 11:25:28;;;;;;;21.47;13.43;;;8.00;99.90;;;;;;5052637;28;20021;-76
2021/11/14 11:27:55;;;;;;;22.00;14.17;;;8.00;99.90;;;;;;5052627;28;20025;-75
2021/11/14 11:30:30;;;;;;;19.90;13.67;;;8.10;99.90;;;;;;5052175;28;20021;-77
2021/11/14 11:32:56;;;;;;;18.80;13.60;;;8.20;99.90;;;;;;4988751;23;20744;-78
2021/11/14 11:35:22;;;;;;;20.83;13.10;;;8.20;99.90;;;;;;5035627;28;20021;-78
2021/11/14 11:37:48;;;;;;;21.73;14.17;;;8.20;99.90;;;;;;5038833;28;20479;-78
2021/11/14 11:40:15;;;;;;;20.80;13.20;;;8.20;99.90;;;;;;5034206;28;20021;-75
2021/11/14 11:42:43;;;;;;;20.10;13.00;;;8.20;99.90;;;;;;5030869;28;20411;-76
2021/11/14 11:45:09;;;;;;;21.30;14.73;;;8.20;99.90;;;;;;5034449;28;20099;-77
2021/11/14 11:47:39;;;;;;;24.10;16.27;;;8.20;99.90;;;;;;5174700;23;20740;-83
2021/11/14 11:50:06;;;;;;;23.97;15.23;;;8.00;99.90;;;;;;5015789;28;20161;-83
2021/11/14 11:52:44;;;;;;;21.13;14.67;;;8.00;99.90;;;;;;4996453;28;20034;-78
2021/11/14 11:55:26;;;;;;;25.13;17.00;;;8.10;99.90;;;;;;5021527;28;20114;-78
2021/11/14 11:58:06;;;;;;;30.10;19.47;;;8.10;99.90;;;;;;5029738;28;20026;-79
2021/11/14 12:00:32;;;;;;;25.07;16.70;;;7.90;99.90;;;;;;5029932;28;20108;-78
2021/11/14 12:02:57;;;;;;;25.13;17.50;;;8.00;99.90;;;;;;5024270;28;20121;-78
2021/11/14 12:05:25;;;;;;;25.57;18.67;;;7.90;99.90;;;;;;5000378;28;20116;-78
2021/11/14 12:07:53;;;;;;;29.47;19.40;;;7.80;99.90;;;;;;5008406;28;20030;-78
2021/11/14 12:10:28;;;;;;;30.43;19.97;;;7.80;99.90;;;;;;5016210;28;20037;-79
2021/11/14 12:13:03;;;;;;;26.77;19.38;;;7.80;99.90;;;;;;5023267;28;20029;-78
2021/11/14 12:15:34;;;;;;;27.95;19.65;;;7.90;99.90;;;;;;5016052;28;20092;-79
2021/11/14 12:18:11;;;;;;;25.13;18.03;;;7.80;99.90;;;;;;5016066;28;20192;-77
2021/11/14 12:20:48;;;;;;;24.53;17.77;;;7.80;99.90;;;;;;5013685;28;20026;-76
2021/11/14 12:23:21;;;;;;;26.83;17.80;;;7.80;99.90;;;;;;5008178;23;20128;-77
2021/11/14 12:25:50;;;;;;;26.80;18.00;;;8.00;99.90;;;;;;5032143;28;20035;-77
2021/11/14 12:28:20;;;;;;;29.97;22.20;;;7.90;99.90;;;;;;5026647;28;20040;-77
2021/11/14 12:33:48;;;;;;;20.97;15.20;;;8.00;99.90;;;;;;5027690;28;20064;-82
2021/11/14 12:36:40;;;;;;;25.90;16.27;;;8.00;99.90;;;;;;5026688;28;20026;-82
2021/11/14 12:39:25;;;;;;;24.83;15.80;;;8.00;99.90;;;;;;5026625;28;20080;-81
2021/11/14 12:42:01;;;;;;;24.43;14.77;;;8.00;99.90;;;;;;5026408;28;20453;-82
2021/11/14 12:44:31;;;;;;;31.30;22.20;;;8.00;99.90;;;;;;5016988;28;20033;-82
2021/11/14 12:46:58;;;;;;;21.67;13.83;;;7.80;99.90;;;;;;5016432;28;20037;-83